Time;durP1;ratioP1;P1;durP2;ratioP2;P2;SDS_P1;SDS_P2;PMS_P1;PMS_P2;Temp;Humidity;BMP_temperature;BMP_pressure;BME280_temperature;BME280_humidity;BME280_pressure;Samples;Min_cycle;Max_cycle;Signal;HPM_P1;HPM_P2
2024/02/26 00:01:28;;;;;;;47.17;21.95;;;;;;;8.19;59.50;99139.34;6160568;22;97555;-82
2024/02/26 00:03:55;;;;;;;49.67;25.02;;;;;;;8.12;59.82;99133.53;6158675;22;101475;-83
2024/02/26 00:06:20;;;;;;;48.85;25.67;;;;;;;8.15;59.86;99137.78;6184901;22;96635;-82
2024/02/26 00:08:46;;;;;;;52.75;25.45;;;;;;;7.89;59.81;99104.91;6159710;22;96839;-83
2024/02/26 00:11:11;;;;;;;48.65;25.58;;;;;;;7.97;60.08;99128.97;6159189;22;101059;-82
2024/02/26 00:13:37;;;;;;;53.60;26.02;;;;;;;7.91;60.24;99116.13;6160035;22;101600;-82
2024/02/26 00:16:03;;;;;;;47.15;25.60;;;;;;;7.98;59.97;99138.50;6161752;22;96553;-82
2024/02/26 00:18:29;;;;;;;46.97;25.33;;;;;;;7.86;60.46;99115.50;6161890;22;97035;-82
2024/02/26 00:20:55;;;;;;;47.42;24.35;;;;;;;7.98;60.27;99125.44;6186214;22;98330;-81
2024/02/26 00:23:20;;;;;;;51.08;25.30;;;;;;;7.83;60.71;99115.63;6186691;22;101129;-83
2024/02/26 00:25:46;;;;;;;47.60;23.55;;;;;;;7.81;61.05;99126.13;6187623;22;97131;-81
2024/02/26 00:28:13;;;;;;;46.20;23.73;;;;;;;7.88;61.07;99124.09;6136677;22;97024;-84
2024/02/26 00:30:39;;;;;;;43.92;25.15;;;;;;;7.88;60.58;99116.25;6136298;22;100611;-82
2024/02/26 00:33:04;;;;;;;51.28;26.77;;;;;;;7.86;60.64;99107.66;6186810;22;97492;-82
2024/02/26 00:35:30;;;;;;;46.92;24.95;;;;;;;7.79;60.61;99101.81;6186382;22;96647;-82
2024/02/26 00:37:55;;;;;;;46.35;25.02;;;;;;;7.87;60.75;99114.56;6212557;22;96744;-81
2024/02/26 00:40:21;;;;;;;47.97;24.33;;;;;;;7.77;61.12;99123.72;6159384;22;98357;-82
2024/02/26 00:42:47;;;;;;;50.03;23.90;;;;;;;7.68;61.04;99115.34;6134315;22;101383;-83
2024/02/26 00:45:13;;;;;;;47.10;24.73;;;;;;;7.71;61.27;99114.38;6184851;22;96726;-82
2024/02/26 00:47:41;;;;;;;49.05;25.38;;;;;;;7.71;61.13;99117.00;6159987;22;97250;-81
2024/02/26 00:50:08;;;;;;;52.67;25.35;;;;;;;7.70;60.84;99120.50;6158959;22;100622;-82
2024/02/26 00:52:34;;;;;;;49.85;25.73;;;;;;;7.55;61.39;99100.25;6162516;22;97271;-82
2024/02/26 00:54:59;;;;;;;47.08;23.98;;;;;;;7.68;61.19;99112.75;6136701;22;97171;-82
2024/02/26 00:57:25;;;;;;;47.17;25.50;;;;;;;7.64;60.37;99105.09;6136973;22;96850;-82
2024/02/26 00:59:50;;;;;;;47.80;26.40;;;;;;;7.62;60.18;99102.53;6186137;22;97320;-82
2024/02/26 01:02:16;;;;;;;50.35;25.33;;;;;;;7.69;60.63;99124.03;6136255;22;101044;-82
2024/02/26 01:04:42;;;;;;;52.08;25.05;;;;;;;7.55;60.85;99115.91;6187047;22;97163;-82
2024/02/26 01:07:07;;;;;;;46.17;24.98;;;;;;;7.62;60.37;99107.78;6214377;22;96718;-82
2024/02/26 01:09:33;;;;;;;48.38;25.42;;;;;;;7.60;60.85;99117.41;6186521;22;97331;-81
2024/02/26 01:11:58;;;;;;;49.53;25.63;;;;;;;7.56;60.68;99101.94;6161257;22;97249;-81
2024/02/26 01:14:42;;;;;;;53.33;25.13;;;;;;;7.56;60.52;99102.78;6161624;22;96914;-81
2024/02/26 01:17:08;;;;;;;50.35;25.88;;;;;;;7.46;60.69;99099.69;6187353;22;96805;-82
2024/02/26 01:19:33;;;;;;;49.83;24.48;;;;;;;7.57;60.23;99103.66;6185674;22;97285;-82
2024/02/26 01:21:59;;;;;;;47.53;24.75;;;;;;;7.62;60.82;99104.28;6160562;22;101137;-82
2024/02/26 01:24:24;;;;;;;45.72;24.23;;;;;;;7.58;61.01;99097.50;6161178;22;96557;-82
2024/02/26 01:26:50;;;;;;;41.50;23.45;;;;;;;7.33;61.08;99071.53;6161252;22;96910;-81
2024/02/26 01:29:15;;;;;;;46.42;25.17;;;;;;;7.47;60.99;99092.72;6161006;22;101144;-81
2024/02/26 01:31:41;;;;;;;45.28;24.63;;;;;;;7.48;60.81;99094.44;6161078;22;101947;-82
2024/02/26 01:34:06;;;;;;;45.47;22.73;;;;;;;7.45;61.23;99097.16;6161734;22;96581;-81
2024/02/26 01:36:32;;;;;;;42.08;22.27;;;;;;;7.20;61.69;99076.41;6187140;22;96861;-81
2024/02/26 01:38:58;;;;;;;44.92;21.52;;;;;;;7.27;61.59;99096.13;6161064;22;97289;-82
2024/02/26 01:41:23;;;;;;;39.20;22.20;;;;;;;7.19;61.89;99070.34;6186795;22;97441;-81
2024/02/26 01:43:48;;;;;;;42.83;20.10;;;;;;;7.24;61.48;99083.19;6186701;22;96612;-82
2024/02/26 01:46:14;;;;;;;37.60;21.48;;;;;;;7.36;61.58;99092.28;6136672;22;97030;-81
2024/02/26 01:48:44;;;;;;;41.30;21.83;;;;;;;7.36;60.98;99092.28;6158754;22;100940;-81
2024/02/26 01:51:10;;;;;;;38.10;19.38;;;;;;;7.30;61.76;99087.31;6185041;22;97778;-82
2024/02/26 01:53:36;;;;;;;33.13;18.77;;;;;;;7.19;61.97;99091.22;6159486;22;97108;-82
2024/02/26 01:56:02;;;;;;;38.15;18.70;;;;;;;7.07;61.79;99062.13;6160088;22;96678;-81
2024/02/26 01:58:30;;;;;;;36.03;20.92;;;;;;;7.02;61.16;99052.75;6159411;22;100269;-81
2024/02/26 02:00:56;;;;;;;38.15;21.20;;;;;;;7.28;61.37;99091.78;6161181;22;101507;-80
2024/02/26 02:03:21;;;;;;;34.28;19.25;;;;;;;7.13;60.95;99054.09;6161975;22;96723;-81
2024/02/26 02:05:47;;;;;;;33.17;17.35;;;;;;;7.29;61.66;99089.09;6187499;22;97103;-81
2024/02/26 02:08:14;;;;;;;36.13;20.25;;;;;;;7.18;61.41;99086.88;6160869;22;101377;-81
2024/02/26 02:10:41;;;;;;;38.65;18.67;;;;;;;7.13;61.60;99085.41;6135998;22;100792;-81
2024/02/26 02:13:07;;;;;;;37.15;18.92;;;;;;;7.03;61.73;99064.03;6185798;22;97117;-81
2024/02/26 02:15:33;;;;;;;33.38;16.75;;;;;;;7.01;62.31;99078.88;6186854;22;97064;-81
2024/02/26 02:17:58;;;;;;;35.95;18.35;;;;;;;6.91;62.86;99082.78;6186467;22;97349;-81
2024/02/26 02:20:33;;;;;;;29.55;17.52;;;;;;;7.03;62.65;99085.75;6160168;22;97309;-81
2024/02/26 02:22:59;;;;;;;30.70;15.75;;;;;;;7.10;62.91;99088.09;6161717;22;96992;-81
2024/02/26 02:25:25;;;;;;;37.42;17.70;;;;;;;7.02;62.74;99081.44;6213589;22;96816;-81
2024/02/26 02:27:52;;;;;;;38.08;17.35;;;;;;;7.06;62.69;99078.72;6186352;22;100808;-81
2024/02/26 02:30:17;;;;;;;35.20;16.35;;;;;;;6.94;62.85;99062.63;6186559;22;97288;-83
2024/02/26 02:32:43;;;;;;;30.55;16.20;;;;;;;7.10;62.78;99075.94;6186792;22;96697;-81
2024/02/26 02:35:08;;;;;;;31.75;17.35;;;;;;;7.05;62.29;99077.88;6161563;22;96740;-81
2024/02/26 02:37:34;;;;;;;33.95;16.98;;;;;;;7.11;62.13;99080.22;6185398;22;97285;-82
2024/02/26 02:40:00;;;;;;;32.38;15.73;;;;;;;7.12;62.27;99076.69;6135445;22;101218;-81
2024/02/26 02:42:26;;;;;;;36.65;17.35;;;;;;;6.89;62.23;99040.22;6136019;22;96591;-80
2024/02/26 02:44:51;;;;;;;26.50;15.07;;;;;;;7.04;62.34;99078.78;6186386;22;96738;-81
2024/02/26 02:47:17;;;;;;;31.02;14.65;;;;;;;6.95;62.56;99066.06;6160932;22;101424;-81
2024/02/26 02:49:42;;;;;;;29.05;15.70;;;;;;;7.09;62.46;99089.88;6186122;22;101439;-80
2024/02/26 02:52:08;;;;;;;27.58;14.48;;;;;;;7.00;62.60;99074.56;6186951;22;96929;-81
2024/02/26 02:54:33;;;;;;;31.48;15.50;;;;;;;7.09;62.27;99078.59;6161475;22;96695;-81
2024/02/26 02:56:59;;;;;;;29.77;16.77;;;;;;;6.92;62.17;99060.97;6213463;22;97421;-81
2024/02/26 02:59:25;;;;;;;30.25;16.40;;;;;;;6.84;62.32;99055.22;6160488;22;101061;-80
2024/02/26 03:01:50;;;;;;;27.55;16.10;;;;;;;6.79;62.08;99065.84;6135272;22;96883;-81
2024/02/26 03:04:16;;;;;;;29.23;14.57;;;;;;;6.76;62.26;99052.91;6160910;22;96752;-81
2024/02/26 03:06:41;;;;;;;28.10;14.38;;;;;;;6.86;62.87;99084.69;6135386;22;100901;-80
2024/02/26 03:09:07;;;;;;;30.02;14.20;;;;;;;6.71;62.99;99060.91;6134537;22;101374;-81
2024/02/26 03:11:32;;;;;;;27.60;14.20;;;;;;;6.69;63.37;99061.88;6213007;22;96676;-80
2024/02/26 03:13:58;;;;;;;29.42;15.40;;;;;;;6.84;63.16;99083.94;6186335;22;96777;-81
2024/02/26 03:16:23;;;;;;;28.38;13.57;;;;;;;6.84;63.08;99082.16;6186332;22;98038;-81
2024/02/26 03:18:49;;;;;;;30.70;15.27;;;;;;;6.81;63.59;99084.91;6160395;22;97421;-81
2024/02/26 03:21:14;;;;;;;28.85;14.43;;;;;;;6.68;64.30;99071.44;6160070;22;96683;-82
2024/02/26 03:23:40;;;;;;;31.48;14.80;;;;;;;6.57;64.45;99081.44;6134968;22;97178;-80
2024/02/26 03:26:06;;;;;;;27.65;14.50;;;;;;;6.55;64.19;99070.22;6211946;22;97271;-81
2024/02/26 03:28:33;;;;;;;28.08;15.05;;;;;;;6.65;64.18;99081.16;6185299;22;100950;-83
2024/02/26 03:30:59;;;;;;;28.65;16.08;;;;;;;6.62;63.54;99068.22;6136123;22;96770;-82
2024/02/26 03:33:25;;;;;;;37.90;16.85;;;;;;;6.68;63.57;99081.88;6160836;22;96987;-80
2024/02/26 03:35:50;;;;;;;30.60;16.33;;;;;;;6.75;63.89;99079.91;6160590;22;100905;-81
2024/02/26 03:38:16;;;;;;;35.17;15.00;;;;;;;6.78;63.71;99079.78;6135411;22;101038;-81
2024/02/26 03:40:41;;;;;;;30.33;14.98;;;;;;;6.77;62.90;99072.84;6160365;22;96766;-81
2024/02/26 03:43:07;;;;;;;30.27;15.52;;;;;;;6.79;62.97;99071.06;6160944;22;97190;-81
2024/02/26 03:45:33;;;;;;;32.40;14.88;;;;;;;6.78;62.75;99080.63;6134943;22;100147;-81
2024/02/26 03:47:58;;;;;;;30.83;15.10;;;;;;;6.73;63.56;99069.53;6185698;22;97199;-80
2024/02/26 03:50:24;;;;;;;27.92;15.00;;;;;;;6.78;62.87;99078.03;6160671;22;96766;-81
2024/02/26 03:52:49;;;;;;;25.77;13.82;;;;;;;6.64;63.07;99064.66;6162314;22;96961;-81
2024/02/26 03:55:15;;;;;;;27.77;14.65;;;;;;;6.74;62.83;99071.22;6186957;22;97445;-81
2024/02/26 03:57:40;;;;;;;31.45;15.90;;;;;;;6.68;62.80;99055.81;6136467;22;101755;-80
2024/02/26 04:00:07;;;;;;;27.17;15.20;;;;;;;6.72;62.98;99065.22;6136345;22;97180;-81
2024/02/26 04:02:36;;;;;;;25.88;14.90;;;;;;;6.58;63.59;99054.47;6188456;22;96722;-80
2024/02/26 04:05:01;;;;;;;26.48;14.38;;;;;;;6.71;63.28;99081.75;6186798;22;97743;-80
2024/02/26 04:07:27;;;;;;;27.77;14.82;;;;;;;6.48;63.21;99050.50;6187868;22;98352;-80
2024/02/26 04:09:52;;;;;;;30.75;14.25;;;;;;;6.64;63.05;99080.31;6161525;22;97178;-81
2024/02/26 04:12:18;;;;;;;27.42;16.13;;;;;;;6.49;62.89;99042.63;6136784;22;96823;-81
2024/02/26 04:14:44;;;;;;;28.50;14.48;;;;;;;6.64;62.75;99069.88;6185779;22;98446;-81
2024/02/26 04:17:11;;;;;;;28.85;14.60;;;;;;;6.62;62.51;99063.88;6186765;22;97229;-80
2024/02/26 04:19:36;;;;;;;35.20;15.10;;;;;;;6.46;62.68;99067.97;6186626;22;96698;-81
2024/02/26 04:22:02;;;;;;;30.52;14.80;;;;;;;6.49;63.62;99076.53;6137087;22;96721;-81
2024/02/26 04:24:27;;;;;;;30.85;16.55;;;;;;;6.27;63.51;99055.59;6186898;22;97413;-80
2024/02/26 04:26:53;;;;;;;26.50;15.02;;;;;;;6.42;64.42;99074.19;6161321;22;101189;-81
2024/02/26 04:29:18;;;;;;;28.45;15.43;;;;;;;6.44;64.38;99064.56;6186595;22;96706;-80
2024/02/26 04:31:45;;;;;;;25.42;14.57;;;;;;;6.51;63.44;99081.66;6136957;22;97129;-81
2024/02/26 04:34:11;;;;;;;33.22;15.07;;;;;;;6.34;63.15;99054.47;6186783;22;97459;-80
2024/02/26 04:36:36;;;;;;;28.08;15.45;;;;;;;6.38;63.13;99077.81;6161636;22;97945;-80
2024/02/26 04:39:02;;;;;;;26.23;14.70;;;;;;;6.28;62.89;99062.53;6161334;22;97005;-80
2024/02/26 04:41:28;;;;;;;35.05;15.48;;;;;;;6.37;62.92;99082.19;6161187;22;97282;-80
2024/02/26 04:43:53;;;;;;;27.55;16.80;;;;;;;6.24;63.72;99086.97;6135745;22;100473;-80
2024/02/26 04:46:21;;;;;;;28.45;15.45;;;;;;;6.24;64.20;99088.75;6186828;22;98022;-81
2024/02/26 04:48:47;;;;;;;29.70;15.07;;;;;;;6.23;64.41;99093.09;6187389;22;96735;-80
2024/02/26 04:51:13;;;;;;;31.63;16.10;;;;;;;6.26;64.01;99087.78;6187079;22;96806;-80
2024/02/26 04:53:38;;;;;;;27.77;15.15;;;;;;;6.31;63.93;99085.88;6186544;22;97342;-81
2024/02/26 04:56:04;;;;;;;26.35;14.27;;;;;;;6.44;63.42;99093.22;6136586;22;101518;-80
2024/02/26 04:58:29;;;;;;;27.92;13.38;;;;;;;6.32;63.52;99092.78;6161472;22;97069;-81
2024/02/26 05:00:55;;;;;;;29.45;14.80;;;;;;;6.29;64.14;99094.66;6160806;22;96870;-80
2024/02/26 05:03:21;;;;;;;28.80;15.15;;;;;;;6.30;63.83;99091.13;6160088;22;100960;-81
2024/02/26 05:05:46;;;;;;;27.48;15.02;;;;;;;6.05;63.65;99050.31;6160434;22;97180;-81
2024/02/26 05:08:12;;;;;;;28.05;14.40;;;;;;;6.33;63.87;99081.44;6213048;22;96709;-81
2024/02/26 05:10:40;;;;;;;31.77;15.70;;;;;;;6.22;63.41;99069.69;6185466;22;96762;-80
2024/02/26 05:13:07;;;;;;;28.63;15.52;;;;;;;6.29;63.82;99079.84;6185510;22;97346;-80
2024/02/26 05:15:32;;;;;;;27.30;15.65;;;;;;;6.38;64.04;99088.25;6134401;22;100559;-80
2024/02/26 05:17:58;;;;;;;28.80;15.52;;;;;;;6.29;63.79;99090.28;6159145;22;96708;-80
2024/02/26 05:20:23;;;;;;;37.13;16.88;;;;;;;6.11;63.98;99064.88;6154106;22;97080;-83
2024/02/26 05:22:49;;;;;;;35.03;16.52;;;;;;;6.22;63.97;99087.94;6180111;22;97395;-82
2024/02/26 05:25:15;;;;;;;37.92;18.88;;;;;;;6.18;65.36;99087.19;6179260;22;97427;-81
2024/02/26 05:27:41;;;;;;;32.90;16.50;;;;;;;6.15;65.60;99084.69;6153710;22;97203;-80
2024/02/26 05:30:07;;;;;;;29.73;16.80;;;;;;;6.09;65.31;99062.31;6128874;22;96802;-79
2024/02/26 05:32:33;;;;;;;37.22;15.98;;;;;;;6.18;65.78;99082.00;6178199;22;97301;-80
2024/02/26 05:34:58;;;;;;;26.58;16.23;;;;;;;6.13;65.97;99082.13;6152217;22;101451;-83
2024/02/26 05:37:24;;;;;;;31.35;17.65;;;;;;;6.20;66.00;99088.00;6176837;22;96968;-82
2024/02/26 05:39:49;;;;;;;29.25;16.83;;;;;;;6.24;65.99;99092.19;6151684;22;97061;-83
2024/02/26 05:42:15;;;;;;;30.83;17.35;;;;;;;6.28;66.08;99095.53;6176553;22;97959;-80
2024/02/26 05:44:40;;;;;;;29.52;15.98;;;;;;;6.31;65.87;99092.81;6126893;22;101490;-81
2024/02/26 05:47:06;;;;;;;25.67;16.23;;;;;;;6.38;65.62;99091.69;6177518;22;96792;-80
2024/02/26 05:49:32;;;;;;;31.35;16.92;;;;;;;6.33;66.13;99081.44;6152361;22;96758;-81
2024/02/26 05:51:58;;;;;;;28.65;17.23;;;;;;;6.35;65.91;99091.81;6180334;22;97532;-82
2024/02/26 05:54:23;;;;;;;33.03;19.85;;;;;;;6.39;66.06;99110.78;6181652;22;97857;-81
2024/02/26 05:56:48;;;;;;;30.40;17.95;;;;;;;6.42;66.24;99102.84;6155896;22;96843;-81
2024/02/26 05:59:15;;;;;;;26.77;17.40;;;;;;;6.22;66.28;99086.16;6181292;22;97156;-91
2024/02/26 06:01:41;;;;;;;29.65;18.13;;;;;;;6.40;65.73;99107.28;6131761;22;101816;-89
2024/02/26 06:04:07;;;;;;;28.65;17.58;;;;;;;6.20;66.28;99074.97;6131304;22;101084;-90
2024/02/26 06:06:32;;;;;;;32.28;19.17;;;;;;;6.33;66.77;99102.28;6182633;22;96578;-89
2024/02/26 06:08:58;;;;;;;31.50;19.48;;;;;;;6.30;66.72;99086.75;6131878;22;96963;-85
2024/02/26 06:11:23;;;;;;;32.72;18.55;;;;;;;6.46;66.21;99105.31;6155631;22;98171;-80
2024/02/26 06:13:49;;;;;;;31.23;19.50;;;;;;;6.47;66.70;99107.00;6129675;22;101352;-85
2024/02/26 06:16:14;;;;;;;36.05;18.67;;;;;;;6.64;66.44;99118.59;6132437;22;97056;-94
2024/02/26 06:18:40;;;;;;;34.83;19.77;;;;;;;6.59;66.79;99097.88;6158847;22;96594;-94
2024/02/26 06:21:09;;;;;;;30.33;18.50;;;;;;;6.64;66.26;99087.28;6157747;22;98225;-93
2024/02/26 06:23:35;;;;;;;30.20;18.05;;;;;;;6.91;66.23;99116.69;6157448;22;100904;-94
2024/02/26 06:26:00;;;;;;;35.95;20.65;;;;;;;7.00;66.05;99114.56;6133743;22;96651;-95
2024/02/26 06:28:26;;;;;;;37.08;20.08;;;;;;;6.97;66.01;99106.00;6158193;22;96774;-95
2024/02/26 06:30:52;;;;;;;31.58;20.50;;;;;;;6.80;66.24;99067.53;6132220;22;101366;-95
2024/02/26 06:33:18;;;;;;;34.70;20.95;;;;;;;7.21;65.93;99110.28;6132891;22;101090;-94
2024/02/26 06:35:44;;;;;;;34.38;20.48;;;;;;;7.10;65.33;99060.28;6157944;22;96981;-96
2024/02/26 06:38:11;;;;;;;34.05;20.83;;;;;;;7.45;65.47;99095.41;6132856;22;97343;-93
2024/02/26 06:40:37;;;;;;;33.90;20.63;;;;;;;7.66;65.37;99114.56;6156657;22;101125;-95
2024/02/26 06:43:02;;;;;;;35.45;20.55;;;;;;;7.18;64.66;99046.91;6131996;22;100051;-95
2024/02/26 06:45:28;;;;;;;32.95;20.02;;;;;;;7.38;64.63;99060.00;6183033;22;96636;-96
2024/02/26 06:47:55;;;;;;;42.70;21.33;;;;;;;7.27;65.05;99046.53;6133565;22;97509;-93
2024/02/26 06:50:21;;;;;;;36.50;21.30;;;;;;;7.46;64.89;99080.56;6132933;22;99994;-93
2024/02/26 06:52:47;;;;;;;32.53;21.35;;;;;;;7.44;64.43;99072.78;6157132;22;100854;-89
2024/02/26 06:55:13;;;;;;;39.45;22.13;;;;;;;7.59;64.87;99092.22;6130348;22;96712;-84
2024/02/26 06:57:38;;;;;;;34.85;20.00;;;;;;;7.88;64.77;99124.97;6155621;22;97095;-84
2024/02/26 07:00:05;;;;;;;34.85;21.70;;;;;;;8.02;64.08;99102.63;6179933;22;97928;-84
2024/02/26 07:02:31;;;;;;;38.95;22.70;;;;;;;8.37;62.99;99115.00;6155045;22;101453;-85
2024/02/26 07:04:58;;;;;;;37.55;22.35;;;;;;;8.51;62.63;99118.81;6129965;22;96628;-84
2024/02/26 07:07:24;;;;;;;36.65;21.33;;;;;;;8.59;62.30;99109.69;6129703;22;96796;-76
2024/02/26 07:09:49;;;;;;;38.45;22.20;;;;;;;9.03;61.56;99119.91;6154027;22;101001;-84
2024/02/26 07:12:16;;;;;;;33.63;22.05;;;;;;;9.06;61.81;99111.06;6129627;22;100224;-84
2024/02/26 07:14:41;;;;;;;36.70;22.05;;;;;;;9.11;61.10;99123.94;6127769;22;96871;-84
2024/02/26 07:17:07;;;;;;;38.20;22.48;;;;;;;9.05;61.00;99091.88;6155244;22;96761;-84
2024/02/26 07:19:34;;;;;;;33.67;21.58;;;;;;;9.45;60.17;99118.78;6128691;22;101515;-83
2024/02/26 07:22:01;;;;;;;31.02;22.08;;;;;;;9.64;59.63;99120.50;6180501;22;98322;-83
2024/02/26 07:24:27;;;;;;;38.20;20.95;;;;;;;9.42;59.86;99091.88;6154561;22;97141;-83
2024/02/26 07:26:54;;;;;;;29.88;21.13;;;;;;;9.63;59.99;99105.69;6129706;22;96778;-83
2024/02/26 07:29:20;;;;;;;33.28;21.23;;;;;;;9.93;59.63;99116.44;6175333;22;98010;-82
2024/02/26 07:31:45;;;;;;;30.00;21.10;;;;;;;9.95;59.14;99122.47;6153524;22;97785;-82
2024/02/26 07:34:11;;;;;;;36.42;22.23;;;;;;;9.72;59.48;99092.16;6178932;22;97184;-83
2024/02/26 07:36:36;;;;;;;32.10;19.83;;;;;;;10.33;59.21;99114.44;6154415;22;96724;-83
2024/02/26 07:39:02;;;;;;;34.78;20.38;;;;;;;10.55;58.39;99094.00;6153231;22;97326;-83
2024/02/26 07:41:28;;;;;;;35.90;20.95;;;;;;;10.88;57.83;99106.25;6152989;22;97407;-83
2024/02/26 07:43:53;;;;;;;29.67;19.50;;;;;;;11.31;56.86;99122.25;6179274;22;97109;-83
2024/02/26 07:46:19;;;;;;;37.15;19.10;;;;;;;11.30;56.65;99116.16;6154514;22;97252;-83
2024/02/26 07:48:44;;;;;;;29.63;19.23;;;;;;;10.80;57.06;99062.03;6177816;22;101462;-83
2024/02/26 07:51:13;;;;;;;31.83;19.17;;;;;;;11.71;55.81;99126.09;6178589;22;97739;-82
2024/02/26 07:53:39;;;;;;;28.85;18.73;;;;;;;11.75;55.01;99113.59;6178176;22;97212;-83
2024/02/26 07:56:05;;;;;;;26.35;19.40;;;;;;;11.90;55.36;99128.53;6178918;22;96806;-82
2024/02/26 07:58:32;;;;;;;29.65;19.65;;;;;;;12.29;54.73;99113.94;6152114;22;100780;-78
2024/02/26 08:00:57;;;;;;;28.77;19.10;;;;;;;13.05;53.39;99136.50;6152801;22;101488;-80
2024/02/26 08:03:23;;;;;;;29.75;19.55;;;;;;;13.35;53.19;99126.69;6153443;22;96917;-80
2024/02/26 08:05:48;;;;;;;32.20;19.02;;;;;;;13.57;51.97;99120.88;6153533;22;97186;-81
2024/02/26 08:08:14;;;;;;;29.38;20.42;;;;;;;14.25;50.54;99125.16;6127228;22;101670;-81
2024/02/26 08:10:40;;;;;;;28.98;19.08;;;;;;;14.06;50.18;99132.59;6179387;22;97214;-82
2024/02/26 08:13:05;;;;;;;28.35;18.30;;;;;;;14.14;49.45;99106.56;6174421;22;96693;-79
2024/02/26 08:15:32;;;;;;;28.73;19.38;;;;;;;14.34;49.28;99110.47;6151670;22;97492;-77
2024/02/26 08:17:58;;;;;;;27.55;19.67;;;;;;;14.46;49.41;99129.91;6125923;22;101613;-76
2024/02/26 08:20:23;;;;;;;23.95;17.58;;;;;;;14.83;48.43;99107.06;6151068;22;101639;-79
2024/02/26 08:22:49;;;;;;;27.25;18.15;;;;;;;15.19;47.69;99117.78;6177600;22;97116;-80
2024/02/26 08:25:15;;;;;;;24.88;15.85;;;;;;;15.60;46.61;99128.81;6178012;22;97122;-82
2024/02/26 08:27:41;;;;;;;23.95;16.98;;;;;;;15.79;46.55;99112.44;6153005;22;97285;-78
2024/02/26 08:30:07;;;;;;;20.83;14.73;;;;;;;15.75;46.36;99110.16;6152250;22;101262;-81
2024/02/26 08:32:33;;;;;;;23.83;16.45;;;;;;;16.15;45.83;99110.66;6178871;22;96654;-78
2024/02/26 08:34:58;;;;;;;23.27;16.20;;;;;;;16.82;44.75;99125.81;6153222;22;97082;-78
2024/02/26 08:37:24;;;;;;;17.67;13.38;;;;;;;17.06;43.83;99119.50;6180769;22;97571;-79
2024/02/26 08:39:49;;;;;;;24.42;14.02;;;;;;;16.95;44.35;99130.97;6180605;22;97369;-79
2024/02/26 08:42:15;;;;;;;20.17;12.35;;;;;;;17.17;43.23;99098.28;6179028;22;97111;-79
2024/02/26 08:44:40;;;;;;;18.90;12.82;;;;;;;17.98;42.89;99115.53;6177436;22;96968;-79
2024/02/26 08:47:06;;;;;;;21.63;13.75;;;;;;;18.26;41.71;99099.91;6178663;22;98014;-79
2024/02/26 08:49:31;;;;;;;17.60;12.50;;;;;;;17.53;42.03;99109.53;6179804;22;97153;-78
2024/02/26 08:51:57;;;;;;;17.00;12.05;;;;;;;17.50;42.89;99121.22;6179746;22;96701;-78
2024/02/26 08:54:24;;;;;;;18.75;11.75;;;;;;;17.81;42.34;99095.69;6180368;22;96743;-78
2024/02/26 08:56:49;;;;;;;13.75;10.38;;;;;;;18.19;41.69;99072.19;6154581;22;101192;-81
2024/02/26 08:59:16;;;;;;;15.18;10.63;;;;;;;18.40;41.28;99096.91;6178645;22;97443;-81
2024/02/26 09:01:42;;;;;;;17.10;9.90;;;;;;;18.54;41.02;99099.22;6153640;22;96699;-80
2024/02/26 09:04:07;;;;;;;18.20;9.02;;;;;;;18.90;40.75;99099.69;6128879;22;97161;-78
2024/02/26 09:06:33;;;;;;;14.68;8.93;;;;;;;18.62;40.50;99109.22;6168917;22;97549;-78
2024/02/26 09:08:58;;;;;;;11.88;8.45;;;;;;;18.48;41.08;99107.72;6168472;22;97906;-80
2024/02/26 09:11:24;;;;;;;16.88;10.00;;;;;;;18.85;40.72;99107.25;6144761;22;97113;-80
2024/02/26 09:13:49;;;;;;;14.57;8.30;;;;;;;19.36;40.03;99100.91;6145868;22;97285;-79
2024/02/26 09:16:15;;;;;;;14.35;7.78;;;;;;;18.71;40.10;99112.88;6168689;22;101422;-80
2024/02/26 09:18:40;;;;;;;12.07;8.57;;;;;;;19.14;39.70;99087.84;6145783;22;97941;-80
2024/02/26 09:21:06;;;;;;;12.45;8.52;;;;;;;19.76;38.76;99086.69;6120673;22;97110;-78
2024/02/26 09:23:32;;;;;;;13.10;8.00;;;;;;;19.32;39.50;99098.69;6145002;22;97118;-78
2024/02/26 09:25:58;;;;;;;13.23;9.38;;;;;;;18.97;39.61;99094.69;6171365;22;98885;-78
2024/02/26 09:28:23;;;;;;;12.82;8.13;;;;;;;18.63;40.30;99100.25;6168970;22;97924;-77
2024/02/26 09:30:50;;;;;;;12.35;7.50;;;;;;;19.37;39.42;99101.75;6143855;22;97191;-78
2024/02/26 09:33:15;;;;;;;12.70;8.52;;;;;;;18.47;40.53;99113.16;6147361;22;97343;-77
2024/02/26 09:35:41;;;;;;;13.38;7.65;;;;;;;18.72;40.61;99103.91;6144998;22;101611;-77
2024/02/26 09:38:07;;;;;;;12.25;7.82;;;;;;;19.04;39.84;99113.59;6170174;22;97711;-83
2024/02/26 09:40:32;;;;;;;9.88;6.95;;;;;;;19.29;39.34;99088.31;6122382;22;97263;-83
2024/02/26 09:43:04;;;;;;;15.88;7.97;;;;;;;19.57;39.36;99100.78;6122710;22;97283;-82
2024/02/26 09:45:31;;;;;;;9.82;7.53;;;;;;;18.63;40.26;99112.69;6145014;22;101670;-77
2024/02/26 09:47:57;;;;;;;11.50;6.88;;;;;;;18.23;41.38;99100.16;6144583;22;101206;-80
2024/02/26 09:50:22;;;;;;;9.48;6.80;;;;;;;18.12;41.86;99097.56;6147131;22;97195;-82
2024/02/26 09:52:49;;;;;;;11.20;7.00;;;;;;;19.06;40.06;99087.72;6170925;22;97424;-80
2024/02/26 09:55:14;;;;;;;8.57;6.65;;;;;;;18.92;40.40;99110.19;6171528;22;100985;-81
2024/02/26 09:57:45;;;;;;;13.90;6.63;;;;;;;18.42;41.06;99094.97;6121205;22;101036;-82
2024/02/26 10:00:20;;;;;;;11.57;6.50;;;;;;;17.97;41.87;99102.38;6145856;22;97165;-81
2024/02/26 10:02:47;;;;;;;11.85;7.25;;;;;;;17.70;42.48;99105.50;6172312;22;97180;-81
2024/02/26 10:05:17;;;;;;;10.95;6.82;;;;;;;17.14;43.12;99099.38;6146882;22;101789;-82
2024/02/26 10:07:45;;;;;;;13.35;7.50;;;;;;;16.45;45.01;99117.19;6171173;22;99511;-81
2024/02/26 10:10:10;;;;;;;8.68;5.97;;;;;;;16.09;45.68;99108.47;6145423;22;97169;-80
2024/02/26 10:12:36;;;;;;;14.00;6.30;;;;;;;16.04;45.88;99108.81;6147564;22;97129;-81
2024/02/26 10:15:01;;;;;;;12.20;6.47;;;;;;;15.97;45.74;99118.19;6168796;22;101499;-83
2024/02/26 10:17:28;;;;;;;9.95;6.22;;;;;;;15.82;46.75;99119.31;6142151;22;98635;-81
2024/02/26 10:19:56;;;;;;;10.55;6.20;;;;;;;15.27;47.64;99115.41;6111727;22;97292;-81
2024/02/26 10:22:22;;;;;;;8.90;5.95;;;;;;;15.45;47.50;99115.88;6119338;22;97129;-83
2024/02/26 10:24:48;;;;;;;10.57;5.22;;;;;;;15.10;47.90;99127.22;6096113;22;101558;-81
2024/02/26 10:27:15;;;;;;;9.88;5.80;;;;;;;15.16;47.59;99118.84;6094752;22;101282;-82
2024/02/26 10:29:42;;;;;;;8.85;6.00;;;;;;;14.92;48.15;99137.28;6122291;22;97188;-82
2024/02/26 10:32:09;;;;;;;14.73;6.00;;;;;;;15.13;47.67;99127.84;6122115;22;97365;-81
2024/02/26 10:34:37;;;;;;;8.63;6.72;;;;;;;15.01;47.47;99130.50;6119943;22;97978;-82
2024/02/26 10:37:03;;;;;;;10.60;6.72;;;;;;;14.90;47.85;99126.81;6120118;22;98068;-83
2024/02/26 10:39:28;;;;;;;9.77;5.95;;;;;;;14.93;48.40;99116.03;6119640;22;97213;-81
2024/02/26 10:41:54;;;;;;;11.15;6.00;;;;;;;14.49;48.70;99133.16;6119102;22;97272;-82
2024/02/26 10:44:19;;;;;;;9.95;6.10;;;;;;;14.20;49.25;99121.13;6096049;22;101936;-85
2024/02/26 10:46:47;;;;;;;10.25;5.97;;;;;;;14.46;49.08;99122.81;6095556;22;101529;-82
2024/02/26 10:49:15;;;;;;;11.75;6.55;;;;;;;14.45;48.83;99120.28;6146393;22;97251;-82
2024/02/26 10:51:45;;;;;;;10.93;6.55;;;;;;;14.49;49.22;99137.59;6123079;22;97134;-82
2024/02/26 10:54:14;;;;;;;11.00;7.10;;;;;;;14.38;49.78;99111.94;6097058;22;101087;-82
2024/02/26 10:56:43;;;;;;;12.15;6.85;;;;;;;14.46;49.29;99095.59;6094593;22;101343;-81
2024/02/26 10:59:10;;;;;;;14.32;6.80;;;;;;;14.66;48.92;99110.03;6146506;22;97241;-84
2024/02/26 11:01:38;;;;;;;9.80;6.00;;;;;;;14.60;49.01;99091.97;6147901;22;97366;-82
2024/02/26 11:04:04;;;;;;;10.07;6.57;;;;;;;14.47;49.42;99108.66;6120238;22;101448;-81
2024/02/26 11:06:29;;;;;;;13.00;6.53;;;;;;;14.28;49.66;99084.47;6142890;22;97423;-82
2024/02/26 11:08:55;;;;;;;13.07;6.90;;;;;;;14.38;49.50;99076.78;6119229;22;97504;-83
2024/02/26 11:11:22;;;;;;;10.95;5.85;;;;;;;14.53;49.28;99082.81;6093569;22;97702;-82
2024/02/26 11:13:51;;;;;;;9.88;6.32;;;;;;;14.45;49.22;99085.94;6119745;22;101394;-83
2024/02/26 11:16:26;;;;;;;9.27;5.72;;;;;;;14.30;49.66;99058.81;6145055;22;98256;-80